Time;durP1;ratioP1;P1;durP2;ratioP2;P2;SDS_P1;SDS_P2;PMS_P1;PMS_P2;Temp;Humidity;BMP_temperature;BMP_pressure;BME280_temperature;BME280_humidity;BME280_pressure;Samples;Min_cycle;Max_cycle;Signal;HPM_P1;HPM_P2
2023/05/21 00:02:04;;;;;;;6.00;5.47;;;;;;;18.45;80.88;99249.34;5094002;28;20578;-66
2023/05/21 00:04:32;;;;;;;7.03;5.40;;;;;;;18.53;80.89;99246.22;5094479;28;20188;-65
2023/05/21 00:06:59;;;;;;;6.70;6.10;;;;;;;18.58;80.68;99238.22;5094487;28;20289;-66
2023/05/21 00:09:26;;;;;;;6.97;6.33;;;;;;;18.42;81.36;99231.84;5094746;28;20693;-64
2023/05/21 00:11:54;;;;;;;6.53;6.17;;;;;;;18.37;81.46;99228.28;5094140;28;20736;-65
2023/05/21 00:14:21;;;;;;;7.30;6.57;;;;;;;18.39;81.49;99227.00;5094722;28;20317;-64
2023/05/21 00:16:48;;;;;;;7.23;6.50;;;;;;;18.42;81.69;99225.69;5094384;28;20630;-66
2023/05/21 00:19:15;;;;;;;6.83;6.27;;;;;;;18.42;81.73;99229.16;5093313;28;20643;-65
2023/05/21 00:21:41;;;;;;;7.67;6.60;;;;;;;18.45;82.08;99222.47;5094291;28;20191;-65
2023/05/21 00:24:08;;;;;;;7.07;6.60;;;;;;;18.46;81.64;99216.03;5094197;28;20260;-65
2023/05/21 00:26:35;;;;;;;7.40;6.87;;;;;;;18.42;82.26;99220.31;5094146;28;20703;-64
2023/05/21 00:29:03;;;;;;;7.70;6.70;;;;;;;18.39;81.97;99218.94;5093610;28;20231;-64
2023/05/21 00:31:30;;;;;;;7.80;7.03;;;;;;;18.36;82.58;99218.59;5094419;28;20248;-65
2023/05/21 00:33:57;;;;;;;9.03;7.37;;;;;;;18.40;82.68;99217.03;5094249;28;20282;-68
2023/05/21 00:36:24;;;;;;;9.90;6.77;;;;;;;18.44;82.16;99204.72;5094412;28;20224;-65
2023/05/21 00:38:51;;;;;;;8.20;7.40;;;;;;;18.41;82.56;99199.81;5094179;28;20191;-64
2023/05/21 00:41:19;;;;;;;11.10;7.00;;;;;;;18.37;82.50;99201.41;5093188;28;20705;-65
2023/05/21 00:43:45;;;;;;;8.83;6.87;;;;;;;18.39;82.53;99207.34;5093595;28;20250;-65
2023/05/21 00:46:16;;;;;;;9.60;6.90;;;;;;;18.38;82.05;99208.41;5093689;28;20223;-65
2023/05/21 00:48:44;;;;;;;8.20;7.30;;;;;;;18.29;82.50;99202.63;5094076;28;20198;-65
2023/05/21 00:51:12;;;;;;;7.97;7.37;;;;;;;18.20;83.10;99200.66;5093276;28;20708;-66
2023/05/21 00:53:39;;;;;;;8.67;7.87;;;;;;;18.14;83.64;99198.97;5092586;28;20727;-65
2023/05/21 00:56:06;;;;;;;9.67;7.57;;;;;;;17.96;84.66;99188.53;5093326;28;20192;-65
2023/05/21 00:58:34;;;;;;;10.13;7.43;;;;;;;17.88;85.38;99181.72;5093633;28;20202;-66
2023/05/21 01:01:02;;;;;;;9.20;8.33;;;;;;;17.86;85.98;99194.63;5092919;28;20196;-66
2023/05/21 01:03:37;;;;;;;9.27;8.40;;;;;;;17.73;86.48;99172.69;5093326;28;20188;-66
2023/05/21 01:06:04;;;;;;;8.37;7.60;;;;;;;17.66;87.23;99177.41;5092547;28;20210;-66
2023/05/21 01:08:33;;;;;;;9.00;7.97;;;;;;;17.61;87.95;99178.19;5093381;28;20198;-65
2023/05/21 01:11:01;;;;;;;9.37;8.47;;;;;;;17.63;87.85;99183.28;5091774;28;20560;-65
2023/05/21 01:13:29;;;;;;;9.60;8.87;;;;;;;17.60;87.87;99186.47;5092698;28;20190;-65
2023/05/21 01:15:58;;;;;;;8.73;7.87;;;;;;;17.51;87.84;99185.28;5092739;28;20671;-65
2023/05/21 01:18:25;;;;;;;7.87;6.87;;;;;;;17.64;88.28;99184.91;5092375;28;20278;-65
2023/05/21 01:20:54;;;;;;;7.93;7.43;;;;;;;17.73;87.08;99186.13;5092986;28;20183;-66
2023/05/21 01:23:22;;;;;;;7.77;7.00;;;;;;;17.81;86.46;99178.41;5092210;28;20199;-66
2023/05/21 01:25:48;;;;;;;7.60;6.90;;;;;;;17.80;85.99;99178.69;5092513;28;20195;-66
2023/05/21 01:28:15;;;;;;;7.40;6.70;;;;;;;17.76;85.55;99182.94;5092956;28;20316;-66
2023/05/21 01:30:43;;;;;;;7.60;7.10;;;;;;;17.65;85.90;99187.38;5092194;28;20280;-66
2023/05/21 01:33:15;;;;;;;6.87;6.43;;;;;;;17.63;86.17;99184.09;5092428;28;20270;-65
2023/05/21 01:35:47;;;;;;;7.97;7.17;;;;;;;17.76;86.31;99182.94;5092473;28;20704;-65
2023/05/21 01:38:19;;;;;;;7.13;6.50;;;;;;;17.68;86.11;99178.78;5092860;28;20240;-64
2023/05/21 01:40:53;;;;;;;6.70;6.17;;;;;;;17.59;86.39;99182.16;5090100;28;20241;-64
2023/05/21 01:43:20;;;;;;;6.90;6.27;;;;;;;17.59;86.15;99179.47;5092019;28;20187;-65
2023/05/21 01:45:49;;;;;;;7.20;6.53;;;;;;;17.56;86.12;99185.34;5092174;28;20771;-65
2023/05/21 01:48:17;;;;;;;6.80;6.20;;;;;;;17.51;85.98;99177.22;5092537;28;20249;-64
2023/05/21 01:50:44;;;;;;;7.57;6.47;;;;;;;17.46;86.29;99174.44;5092045;28;20244;-65
2023/05/21 01:53:11;;;;;;;7.43;6.73;;;;;;;17.51;86.25;99177.22;5092090;28;20190;-65
2023/05/21 01:55:40;;;;;;;7.60;7.00;;;;;;;17.55;86.37;99170.28;5091950;28;20198;-64
2023/05/21 01:58:08;;;;;;;7.13;6.63;;;;;;;17.54;86.41;99160.59;5089570;28;20709;-65
2023/05/21 02:00:36;;;;;;;7.13;6.60;;;;;;;17.58;86.49;99161.72;5091879;28;20224;-65
2023/05/21 02:03:02;;;;;;;6.83;6.23;;;;;;;17.48;86.88;99161.59;5092244;28;20198;-65
2023/05/21 02:05:29;;;;;;;7.87;6.10;;;;;;;17.42;87.00;99155.34;5091525;28;20805;-65
2023/05/21 02:07:58;;;;;;;6.13;5.63;;;;;;;17.46;87.08;99161.03;5091859;28;20696;-65
2023/05/21 02:10:25;;;;;;;6.80;6.30;;;;;;;17.44;87.29;99155.09;5089100;28;20269;-65
2023/05/21 02:12:52;;;;;;;6.90;6.20;;;;;;;17.38;87.43;99164.09;5091760;28;20615;-65
2023/05/21 02:15:21;;;;;;;6.93;6.10;;;;;;;17.34;87.76;99165.66;5091270;28;20244;-65
2023/05/21 02:17:50;;;;;;;7.33;6.40;;;;;;;17.26;87.95;99161.53;5084317;28;20217;-65
2023/05/21 02:20:17;;;;;;;6.03;5.63;;;;;;;17.25;87.93;99156.41;5071658;28;20187;-65
2023/05/21 02:22:45;;;;;;;6.10;5.50;;;;;;;17.25;88.09;99159.91;5071700;28;20257;-66
2023/05/21 02:25:14;;;;;;;6.30;5.70;;;;;;;17.29;87.81;99157.53;5068249;28;20257;-65
2023/05/21 02:27:41;;;;;;;7.00;6.17;;;;;;;17.27;87.77;99159.69;5071725;28;20247;-65
2023/05/21 02:30:09;;;;;;;8.10;5.90;;;;;;;17.25;87.79;99153.72;5071124;28;20228;-68
2023/05/21 02:32:41;;;;;;;5.80;5.30;;;;;;;17.25;87.72;99159.09;5071077;28;20195;-65
2023/05/21 02:35:09;;;;;;;6.70;6.00;;;;;;;17.30;87.85;99161.84;5071229;28;20195;-65
2023/05/21 02:37:36;;;;;;;7.07;5.87;;;;;;;17.35;87.88;99165.41;5071117;28;20623;-64
2023/05/21 02:40:06;;;;;;;8.13;7.23;;;;;;;17.32;87.32;99162.44;5071807;28;20192;-66
2023/05/21 02:42:33;;;;;;;7.63;6.77;;;;;;;17.34;86.98;99160.28;5072126;28;20199;-65
2023/05/21 02:45:00;;;;;;;7.57;6.73;;;;;;;17.44;86.72;99157.78;5072022;28;20188;-66
2023/05/21 02:47:26;;;;;;;7.80;7.30;;;;;;;17.43;86.27;99158.84;5071715;28;20255;-66
2023/05/21 02:49:54;;;;;;;7.43;6.60;;;;;;;17.46;86.07;99155.66;5070113;28;20192;-66
2023/05/21 02:52:22;;;;;;;7.60;6.97;;;;;;;17.39;86.09;99163.06;5071479;28;20193;-65
2023/05/21 02:54:49;;;;;;;7.70;7.20;;;;;;;17.30;86.50;99162.66;5071652;28;20250;-65
2023/05/21 02:57:17;;;;;;;8.43;7.07;;;;;;;17.44;86.56;99152.41;5071500;28;20196;-65
2023/05/21 02:59:43;;;;;;;8.10;7.23;;;;;;;17.40;86.16;99152.09;5071075;28;20203;-65
2023/05/21 03:02:10;;;;;;;8.77;8.07;;;;;;;17.42;86.26;99159.91;5071799;28;20643;-65
2023/05/21 03:04:44;;;;;;;8.07;7.27;;;;;;;17.42;86.26;99159.91;5063128;28;20258;-65
2023/05/21 03:07:13;;;;;;;7.97;7.23;;;;;;;17.40;86.46;99148.56;5051542;28;20213;-65
2023/05/21 03:09:41;;;;;;;8.17;7.30;;;;;;;17.48;86.74;99150.88;5051870;28;20209;-65
2023/05/21 03:12:08;;;;;;;7.30;6.60;;;;;;;17.52;86.42;99155.47;5057134;28;20194;-65
2023/05/21 03:14:35;;;;;;;8.00;7.20;;;;;;;17.50;86.49;99159.47;5071763;28;20194;-64
2023/05/21 03:17:05;;;;;;;9.13;7.27;;;;;;;17.49;86.56;99157.84;5071618;28;20192;-65
2023/05/21 03:19:33;;;;;;;7.73;6.90;;;;;;;17.54;86.04;99157.91;5071345;28;20257;-65
2023/05/21 03:22:00;;;;;;;7.93;7.10;;;;;;;17.59;85.56;99163.34;5070941;28;20199;-65
2023/05/21 03:24:29;;;;;;;7.53;6.83;;;;;;;17.53;85.73;99158.97;5071786;28;20251;-65
2023/05/21 03:26:55;;;;;;;9.13;7.60;;;;;;;17.33;86.77;99167.56;5071555;28;20223;-65
2023/05/21 03:29:22;;;;;;;8.07;7.27;;;;;;;17.29;86.89;99160.22;5071404;28;20224;-65
2023/05/21 03:31:50;;;;;;;9.53;6.90;;;;;;;17.37;86.84;99167.84;5070415;28;20253;-65
2023/05/21 03:34:18;;;;;;;8.40;7.03;;;;;;;17.32;87.12;99170.47;5074252;28;20275;-65
2023/05/21 03:36:45;;;;;;;7.13;6.67;;;;;;;17.33;87.24;99172.09;5075164;28;20200;-65
2023/05/21 03:39:12;;;;;;;6.83;6.33;;;;;;;17.39;86.82;99165.75;5075420;28;20198;-65
2023/05/21 03:41:40;;;;;;;7.10;6.57;;;;;;;17.33;86.79;99156.81;5074723;28;20195;-64
2023/05/21 03:44:07;;;;;;;10.70;7.43;;;;;;;17.28;87.10;99163.97;5074101;28;20214;-65
2023/05/21 03:46:33;;;;;;;9.10;6.73;;;;;;;17.40;87.44;99167.38;5074998;28;20196;-64
2023/05/21 03:49:01;;;;;;;7.70;6.90;;;;;;;17.52;86.84;99165.41;5074941;28;20250;-64
2023/05/21 03:51:29;;;;;;;10.10;6.80;;;;;;;17.47;86.29;99168.84;5074845;28;20225;-63
2023/05/21 03:53:57;;;;;;;8.67;7.20;;;;;;;17.47;86.30;99174.22;5074013;28;20608;-63
2023/05/21 03:56:24;;;;;;;7.80;7.20;;;;;;;17.40;86.51;99172.75;5074721;28;20238;-65
2023/05/21 03:58:52;;;;;;;8.60;7.17;;;;;;;17.48;86.52;99170.47;5074110;28;20687;-64
2023/05/21 04:01:18;;;;;;;10.53;6.50;;;;;;;17.63;85.42;99161.78;5074711;28;20192;-64
2023/05/21 04:03:45;;;;;;;9.63;6.87;;;;;;;17.66;85.13;99161.28;5072695;28;20207;-65
2023/05/21 04:06:12;;;;;;;8.27;7.47;;;;;;;17.64;84.97;99158.06;5072202;28;20580;-65
2023/05/21 04:08:38;;;;;;;8.63;7.43;;;;;;;17.69;84.95;99158.94;5074717;28;20222;-64
2023/05/21 04:11:05;;;;;;;8.53;7.33;;;;;;;17.83;84.79;99162.03;5074204;28;20192;-65
2023/05/21 04:13:32;;;;;;;7.97;7.23;;;;;;;17.98;84.52;99159.53;5074187;28;20658;-64
2023/05/21 04:16:00;;;;;;;7.97;7.20;;;;;;;18.03;83.86;99162.28;5074543;28;20195;-66
2023/05/21 04:18:27;;;;;;;11.03;7.23;;;;;;;18.00;83.90;99157.41;5073767;28;20204;-64
2023/05/21 04:20:53;;;;;;;9.13;8.33;;;;;;;17.95;83.63;99168.09;5074602;28;20192;-64
2023/05/21 04:23:22;;;;;;;8.97;8.07;;;;;;;17.85;84.02;99159.94;5074486;28;20195;-64
2023/05/21 04:25:49;;;;;;;9.43;7.63;;;;;;;18.07;83.96;99166.09;5070015;28;20674;-64
2023/05/21 04:28:18;;;;;;;4.27;3.97;;;;;;;18.24;86.21;99164.13;5060981;28;20251;-67
2023/05/21 04:30:45;;;;;;;7.53;6.80;;;;;;;18.45;86.23;99161.44;5065061;28;20247;-69
2023/05/21 04:33:16;;;;;;;6.57;4.77;;;;;;;18.87;90.11;99148.06;5061601;28;20192;-65
2023/05/21 04:35:45;;;;;;;6.63;5.33;;;;;;;19.09;82.18;99163.06;5067390;28;20646;-68
2023/05/21 04:38:12;;;;;;;21.07;6.40;;;;;;;19.31;83.86;99157.53;5073445;28;20197;-67
2023/05/21 04:40:39;;;;;;;7.33;5.90;;;;;;;19.77;83.07;99164.81;5073307;28;20185;-68
2023/05/21 04:43:06;;;;;;;7.63;6.30;;;;;;;19.99;79.14;99168.13;5073140;28;20192;-68
2023/05/21 04:45:33;;;;;;;6.10;5.70;;;;;;;20.00;76.27;99172.44;5070390;28;20191;-68
2023/05/21 04:48:00;;;;;;;7.60;5.90;;;;;;;19.89;75.34;99174.28;5068161;28;20212;-68
2023/05/21 04:50:29;;;;;;;11.20;6.17;;;;;;;19.91;78.10;99168.63;5064066;28;20610;-69
2023/05/21 04:52:57;;;;;;;6.80;6.30;;;;;;;20.18;78.41;99166.63;5071387;28;20266;-68
2023/05/21 04:55:24;;;;;;;8.97;6.40;;;;;;;20.17;73.57;99190.06;5073514;28;20275;-67
2023/05/21 04:57:52;;;;;;;6.10;5.57;;;;;;;19.93;73.83;99177.28;5073056;28;20191;-67
2023/05/21 05:00:19;;;;;;;7.70;6.10;;;;;;;20.05;74.54;99175.19;5072090;28;20194;-67
2023/05/21 05:02:46;;;;;;;7.53;6.70;;;;;;;20.18;74.20;99177.41;5073286;28;20227;-67
2023/05/21 05:05:12;;;;;;;7.37;6.73;;;;;;;20.18;73.94;99183.59;5073193;28;20245;-67
2023/05/21 05:07:40;;;;;;;6.80;5.97;;;;;;;20.12;73.79;99173.88;5072664;28;20220;-68
2023/05/21 05:10:08;;;;;;;6.77;6.07;;;;;;;19.97;73.83;99176.47;5072776;28;20238;-67
2023/05/21 05:12:35;;;;;;;6.17;5.77;;;;;;;19.87;76.45;99170.25;5069686;28;20192;-67
2023/05/21 05:15:01;;;;;;;10.57;6.10;;;;;;;20.14;75.96;99182.50;5072998;28;20241;-67
2023/05/21 05:17:28;;;;;;;6.50;6.10;;;;;;;20.21;73.66;99193.03;5072794;28;20253;-68
2023/05/21 05:19:55;;;;;;;8.57;6.10;;;;;;;20.23;74.12;99190.91;5072531;28;20242;-67
2023/05/21 05:22:21;;;;;;;6.77;5.87;;;;;;;20.34;74.90;99192.56;5072276;28;20194;-68
2023/05/21 05:24:50;;;;;;;9.53;5.87;;;;;;;20.26;73.15;99198.47;5072109;28;20579;-68
2023/05/21 05:27:17;;;;;;;8.87;6.17;;;;;;;20.07;73.37;99192.72;5072704;28;20257;-65
2023/05/21 05:29:44;;;;;;;9.37;6.73;;;;;;;19.94;73.92;99195.06;5072969;28;20325;-65
2023/05/21 05:32:11;;;;;;;7.93;5.57;;;;;;;19.90;76.06;99192.06;5072087;28;20192;-63
2023/05/21 05:34:38;;;;;;;5.97;5.57;;;;;;;19.93;74.30;99194.25;5073028;28;20194;-63
2023/05/21 05:37:05;;;;;;;9.83;7.33;;;;;;;19.91;76.94;99192.91;5072870;28;20195;-63
2023/05/21 05:39:31;;;;;;;7.43;6.67;;;;;;;20.11;73.65;99193.00;5072797;28;20199;-63
2023/05/21 05:42:00;;;;;;;7.80;7.00;;;;;;;20.26;74.73;99203.84;5072023;28;20190;-63
2023/05/21 05:44:27;;;;;;;9.73;6.20;;;;;;;20.45;75.29;99199.56;5072664;28;20196;-64
2023/05/21 05:46:53;;;;;;;6.10;5.60;;;;;;;20.64;73.89;99208.78;5072411;28;20196;-65
2023/05/21 05:49:20;;;;;;;6.43;5.73;;;;;;;20.88;73.83;99215.31;5072412;28;20216;-64
2023/05/21 05:51:47;;;;;;;7.00;6.23;;;;;;;21.10;72.26;99220.47;5071150;28;20253;-65
2023/05/21 05:54:13;;;;;;;8.30;6.03;;;;;;;21.35;71.47;99215.84;5072420;28;20257;-65
2023/05/21 05:56:40;;;;;;;8.60;5.57;;;;;;;21.48;71.92;99219.91;5071801;28;20191;-65
2023/05/21 05:59:08;;;;;;;5.87;5.37;;;;;;;21.53;71.48;99234.22;5072001;28;20753;-67
2023/05/21 06:01:35;;;;;;;6.13;5.63;;;;;;;21.67;70.82;99234.44;5071730;28;20250;-68
2023/05/21 06:04:01;;;;;;;7.10;5.10;;;;;;;21.81;70.11;99238.25;5071856;28;20184;-69
2023/05/21 06:06:28;;;;;;;6.10;5.50;;;;;;;21.63;69.34;99231.50;5071789;28;20664;-69
2023/05/21 06:08:55;;;;;;;6.50;5.50;;;;;;;21.39;70.82;99226.94;5072319;28;20274;-67
2023/05/21 06:11:21;;;;;;;6.70;6.07;;;;;;;21.20;71.01;99239.38;5072304;28;20577;-67
2023/05/21 06:13:48;;;;;;;6.60;5.93;;;;;;;21.01;72.19;99225.59;5071065;28;20535;-67
2023/05/21 06:16:16;;;;;;;7.03;6.23;;;;;;;20.98;70.97;99236.16;5072259;28;20191;-66
2023/05/21 06:18:43;;;;;;;6.93;5.80;;;;;;;20.76;72.13;99217.44;5071829;28;20258;-66
2023/05/21 06:21:10;;;;;;;6.33;5.70;;;;;;;20.70;71.99;99223.91;5071559;28;20560;-66
2023/05/21 06:23:37;;;;;;;14.07;5.30;;;;;;;20.58;72.42;99220.66;5072045;28;20702;-62
2023/05/21 06:26:04;;;;;;;6.10;5.60;;;;;;;20.37;72.76;99216.28;5072129;28;20203;-63
2023/05/21 06:28:31;;;;;;;6.17;5.57;;;;;;;20.19;73.48;99206.00;5072142;28;20305;-62
2023/05/21 06:30:57;;;;;;;6.70;6.00;;;;;;;20.21;73.28;99214.63;5071417;28;20582;-62
2023/05/21 06:33:26;;;;;;;6.40;5.80;;;;;;;20.18;73.84;99213.25;5072464;28;20200;-61
2023/05/21 06:35:52;;;;;;;8.80;6.07;;;;;;;20.12;73.58;99203.53;5071654;28;20725;-66
2023/05/21 06:38:19;;;;;;;10.13;6.70;;;;;;;20.07;73.22;99208.88;5071918;28;20254;-68
2023/05/21 06:40:47;;;;;;;22.97;6.80;;;;;;;20.10;73.20;99219.16;5071329;28;20230;-67
2023/05/21 06:43:14;;;;;;;10.43;5.67;;;;;;;20.08;73.60;99212.38;5071880;28;20199;-68
2023/05/21 06:45:40;;;;;;;7.20;6.60;;;;;;;19.92;74.23;99211.50;5071626;28;20199;-67
2023/05/21 06:48:07;;;;;;;7.77;5.93;;;;;;;19.85;74.49;99220.94;5071421;28;20711;-68
2023/05/21 06:50:35;;;;;;;6.30;5.83;;;;;;;19.86;75.23;99206.38;5071043;28;20253;-68
2023/05/21 06:53:02;;;;;;;7.20;6.60;;;;;;;19.88;75.67;99212.28;5071487;28;20249;-68
2023/05/21 06:55:28;;;;;;;7.27;6.77;;;;;;;19.97;76.16;99208.03;5071526;28;20195;-65
2023/05/21 06:57:57;;;;;;;8.00;7.20;;;;;;;20.00;76.81;99212.88;5071919;28;20196;-69
2023/05/21 07:00:24;;;;;;;8.37;7.67;;;;;;;20.02;77.57;99206.16;5071461;28;20264;-68
2023/05/21 07:02:51;;;;;;;8.93;8.07;;;;;;;20.08;77.81;99215.06;5070903;28;20188;-69
2023/05/21 07:05:18;;;;;;;9.63;8.30;;;;;;;20.12;78.35;99206.25;5071227;28;20667;-68
2023/05/21 07:07:46;;;;;;;10.77;7.60;;;;;;;20.07;78.41;99200.81;5073414;28;20214;-68
2023/05/21 07:10:12;;;;;;;14.37;8.00;;;;;;;19.98;79.69;99202.34;5075489;28;20203;-68
2023/05/21 07:12:40;;;;;;;7.20;6.57;;;;;;;19.80;80.47;99175.06;5075130;28;20199;-68
2023/05/21 07:15:07;;;;;;;7.67;6.77;;;;;;;20.14;79.78;99198.69;5073993;28;20196;-68
2023/05/21 07:17:34;;;;;;;8.97;7.00;;;;;;;20.23;79.14;99204.38;5075216;28;20188;-69
2023/05/21 07:20:01;;;;;;;6.57;5.93;;;;;;;20.29;80.02;99200.59;5074840;28;20691;-69
2023/05/21 07:22:27;;;;;;;6.43;5.90;;;;;;;20.27;79.70;99200.09;5074919;28;20234;-69
2023/05/21 07:24:56;;;;;;;25.33;6.60;;;;;;;20.28;79.43;99188.22;5075130;28;20196;-69
2023/05/21 07:27:22;;;;;;;6.67;5.80;;;;;;;20.30;78.29;99199.56;5074124;28;20196;-67
2023/05/21 07:29:49;;;;;;;10.47;6.60;;;;;;;20.34;78.34;99195.25;5074925;28;20292;-68
2023/05/21 07:32:16;;;;;;;6.87;6.17;;;;;;;20.40;77.48;99196.88;5075047;28;20253;-68
2023/05/21 07:34:43;;;;;;;6.83;5.37;;;;;;;20.53;75.74;99207.97;5074497;28;20629;-65
2023/05/21 07:37:09;;;;;;;5.63;5.00;;;;;;;20.63;74.05;99207.97;5074738;28;20572;-68
2023/05/21 07:39:36;;;;;;;13.50;5.90;;;;;;;20.73;72.61;99211.75;5074331;28;20203;-69
2023/05/21 07:42:05;;;;;;;8.27;6.10;;;;;;;20.86;71.22;99219.34;5074731;28;20223;-68
2023/05/21 07:44:31;;;;;;;4.67;4.33;;;;;;;21.06;69.55;99228.28;5074734;28;20242;-69
2023/05/21 07:46:58;;;;;;;8.40;5.17;;;;;;;21.20;69.49;99229.41;5074457;28;20254;-69
2023/05/21 07:49:25;;;;;;;5.87;5.13;;;;;;;21.33;68.29;99223.44;5074595;28;20650;-69
2023/05/21 07:51:51;;;;;;;5.33;4.93;;;;;;;21.52;67.53;99232.56;5074372;28;20249;-70
2023/05/21 07:54:18;;;;;;;7.47;4.53;;;;;;;21.54;65.56;99246.66;5073706;28;20262;-68
2023/05/21 07:56:45;;;;;;;7.83;4.27;;;;;;;21.66;63.08;99249.88;5074896;28;20196;-70
2023/05/21 07:59:14;;;;;;;6.97;4.50;;;;;;;21.72;63.29;99248.78;5073896;28;20624;-70
2023/05/21 08:01:42;;;;;;;4.87;3.97;;;;;;;21.81;63.20;99247.16;5074573;28;20200;-69
2023/05/21 08:04:09;;;;;;;15.57;4.60;;;;;;;21.96;62.86;99249.81;5073541;28;20192;-68
2023/05/21 08:06:36;;;;;;;6.23;4.00;;;;;;;22.10;60.05;99225.69;5074187;28;20254;-70
2023/05/21 08:09:03;;;;;;;6.57;4.23;;;;;;;22.26;60.85;99238.88;5073928;28;20668;-69
2023/05/21 08:11:30;;;;;;;4.47;4.07;;;;;;;22.37;59.41;99245.88;5074540;28;20195;-69
2023/05/21 08:13:57;;;;;;;4.27;3.80;;;;;;;22.59;59.65;99238.22;5074016;28;20223;-66
2023/05/21 08:16:25;;;;;;;4.73;4.23;;;;;;;22.76;59.54;99243.25;5074201;28;20195;-66
2023/05/21 08:18:51;;;;;;;5.00;4.50;;;;;;;22.94;58.97;99248.81;5073739;28;20249;-69
2023/05/21 08:21:18;;;;;;;4.50;4.03;;;;;;;23.15;60.70;99246.75;5073142;28;20745;-59
2023/05/21 08:23:45;;;;;;;5.80;4.43;;;;;;;23.39;59.00;99251.19;5073767;28;20196;-60
2023/05/21 08:26:15;;;;;;;6.10;4.37;;;;;;;23.55;54.44;99263.50;5073625;28;20196;-60
2023/05/21 08:28:42;;;;;;;4.70;4.30;;;;;;;23.66;52.97;99261.50;5074155;28;20226;-61
2023/05/21 08:31:08;;;;;;;8.20;4.63;;;;;;;23.88;52.58;99268.06;5070688;28;20230;-59
2023/05/21 08:33:37;;;;;;;4.87;4.47;;;;;;;24.03;52.13;99270.63;5062576;28;20193;-60
2023/05/21 08:36:04;;;;;;;6.17;4.50;;;;;;;24.08;52.41;99267.88;5063774;28;20193;-60
2023/05/21 08:38:31;;;;;;;5.03;4.67;;;;;;;24.20;50.51;99270.97;5063837;28;20199;-60
2023/05/21 08:40:59;;;;;;;5.00;4.47;;;;;;;24.25;51.76;99257.34;5073309;28;20555;-60
2023/05/21 08:43:28;;;;;;;8.43;4.00;;;;;;;24.39;48.14;99260.94;5073240;28;20202;-60
2023/05/21 08:45:59;;;;;;;4.27;3.87;;;;;;;24.59;50.35;99249.81;5065242;28;20195;-61
2023/05/21 08:48:26;;;;;;;9.67;5.03;;;;;;;24.76;47.14;99262.94;5063705;28;20291;-59
2023/05/21 08:50:55;;;;;;;4.80;4.20;;;;;;;24.97;48.58;99264.25;5062994;28;20200;-60
2023/05/21 08:53:22;;;;;;;4.07;3.80;;;;;;;25.02;47.40;99260.66;5068576;28;20195;-60
2023/05/21 08:55:50;;;;;;;9.63;5.67;;;;;;;25.18;50.60;99234.84;5073309;28;20200;-60
2023/05/21 08:58:18;;;;;;;7.63;5.50;;;;;;;25.28;46.53;99227.38;5072410;28;20206;-60
2023/05/21 09:00:45;;;;;;;6.70;4.60;;;;;;;25.24;45.69;99228.22;5073211;28;20203;-61
2023/05/21 09:03:13;;;;;;;4.57;3.70;;;;;;;25.11;43.66;99237.13;5067093;28;20192;-60
2023/05/21 09:05:41;;;;;;;4.47;4.00;;;;;;;25.08;44.07;99232.28;5061464;28;20195;-61
2023/05/21 09:08:14;;;;;;;6.80;4.10;;;;;;;25.10;42.01;99230.88;5067745;28;20191;-64
2023/05/21 09:10:45;;;;;;;7.90;4.20;;;;;;;25.08;42.33;99226.84;5052785;28;20612;-64
2023/05/21 09:13:12;;;;;;;6.97;3.87;;;;;;;25.20;41.25;99224.47;5053366;28;20238;-63
2023/05/21 09:15:40;;;;;;;3.97;3.67;;;;;;;25.22;46.56;99206.75;5052666;28;20566;-64
2023/05/21 09:18:07;;;;;;;4.70;3.30;;;;;;;25.42;44.06;99214.59;5052580;28;20604;-65
2023/05/21 09:20:34;;;;;;;3.40;3.20;;;;;;;25.57;44.03;99218.94;5059939;28;20247;-64
2023/05/21 09:23:04;;;;;;;6.67;3.97;;;;;;;25.63;43.70;99212.31;5072730;28;20678;-65
2023/05/21 09:25:33;;;;;;;4.00;3.60;;;;;;;25.52;40.63;99221.78;5073310;28;20184;-64
2023/05/21 09:27:59;;;;;;;5.63;3.57;;;;;;;25.51;42.60;99215.50;5073085;28;20192;-64
2023/05/21 09:30:27;;;;;;;4.97;4.40;;;;;;;25.57;40.90;99214.34;5072199;28;20340;-64
2023/05/21 09:32:57;;;;;;;6.17;4.33;;;;;;;25.57;40.52;99213.50;5072345;28;20261;-64
2023/05/21 09:35:24;;;;;;;9.30;3.83;;;;;;;25.47;41.47;99208.28;5073194;28;20245;-64
2023/05/21 09:37:53;;;;;;;3.87;3.57;;;;;;;25.51;40.84;99212.00;5072927;28;20195;-64
2023/05/21 09:40:21;;;;;;;3.73;3.40;;;;;;;25.61;41.96;99225.41;5072505;28;20200;-64
2023/05/21 09:42:50;;;;;;;4.90;4.40;;;;;;;25.65;41.39;99215.53;5072885;28;20203;-64
2023/05/21 09:45:21;;;;;;;5.53;3.63;;;;;;;25.60;42.16;99219.16;5071753;28;20211;-64
2023/05/21 09:47:49;;;;;;;5.83;3.60;;;;;;;25.38;44.76;99210.03;5072649;28;20200;-64
2023/05/21 09:50:18;;;;;;;4.00;3.70;;;;;;;24.98;45.69;99211.50;5072148;28;20220;-64
2023/05/21 09:52:46;;;;;;;4.60;4.20;;;;;;;24.82;46.18;99219.09;5072658;28;20202;-63
2023/05/21 09:55:13;;;;;;;6.77;4.03;;;;;;;24.82;46.25;99219.09;5072265;28;20659;-64
2023/05/21 09:57:42;;;;;;;6.63;4.47;;;;;;;24.92;48.33;99205.34;5071831;28;20237;-59
2023/05/21 10:00:18;;;;;;;5.67;5.13;;;;;;;25.07;46.69;99217.09;5072212;28;20563;-60
2023/05/21 10:02:45;;;;;;;8.93;4.53;;;;;;;25.19;47.00;99212.78;5072272;28;20179;-61
2023/05/21 10:05:14;;;;;;;5.73;4.13;;;;;;;25.21;43.91;99215.22;5067474;28;20197;-61
2023/05/21 10:07:42;;;;;;;7.73;4.50;;;;;;;25.06;44.40;99218.19;5072337;28;20199;-60
2023/05/21 10:10:12;;;;;;;8.47;5.70;;;;;;;24.87;45.49;99216.28;5072049;28;20568;-61
2023/05/21 10:12:41;;;;;;;5.07;4.67;;;;;;;24.52;46.83;99214.09;5072366;28;20187;-60
2023/05/21 10:15:13;;;;;;;7.03;4.87;;;;;;;24.25;47.70;99219.34;5068178;28;20199;-61
2023/05/21 10:17:40;;;;;;;8.63;4.80;;;;;;;24.11;49.41;99213.00;5059560;28;20195;-67
2023/05/21 10:20:10;;;;;;;5.00;4.50;;;;;;;23.88;50.78;99213.78;5069192;28;20262;-60
2023/05/21 10:22:37;;;;;;;4.80;4.40;;;;;;;23.77;54.79;99208.78;5066450;28;20196;-71
2023/05/21 10:25:06;;;;;;;6.93;4.53;;;;;;;23.81;56.56;99207.88;5058972;28;20756;-73
2023/05/21 10:27:33;;;;;;;5.33;4.50;;;;;;;23.83;56.42;99205.72;5052819;28;20637;-66
2023/05/21 10:30:00;;;;;;;9.43;4.80;;;;;;;23.79;56.23;99196.53;5068049;28;20780;-64
2023/05/21 10:32:30;;;;;;;5.30;4.60;;;;;;;23.82;56.45;99193.25;5056717;28;20263;-67
2023/05/21 10:34:57;;;;;;;5.13;4.50;;;;;;;23.90;55.59;99200.75;5071842;28;20664;-67
2023/05/21 10:37:25;;;;;;;4.63;4.20;;;;;;;23.95;56.84;99191.75;5044558;28;20236;-68
2023/05/21 10:39:52;;;;;;;6.67;4.23;;;;;;;24.14;57.45;99214.31;5063787;28;20214;-68
2023/05/21 10:42:26;;;;;;;7.37;5.07;;;;;;;24.22;56.45;99202.81;5065353;28;20199;-68
2023/05/21 10:45:08;;;;;;;6.67;5.07;;;;;;;24.31;54.61;99215.47;5068372;28;20193;-68
2023/05/21 10:48:04;;;;;;;5.07;4.33;;;;;;;24.38;53.38;99217.81;5070633;28;20187;-65
2023/05/21 10:50:46;;;;;;;12.23;5.30;;;;;;;24.46;53.03;99223.38;5069104;28;20285;-66
2023/05/21 10:53:19;;;;;;;8.47;4.27;;;;;;;24.62;52.59;99229.44;5067339;28;20220;-65
2023/05/21 10:55:58;;;;;;;5.90;3.87;;;;;;;24.75;52.40;99229.50;5068646;28;20638;-68
2023/05/21 10:59:03;;;;;;;7.37;3.97;;;;;;;24.56;48.67;99236.03;5070834;28;20270;-68
2023/05/21 11:01:34;;;;;;;4.90;3.70;;;;;;;24.48;48.73;99229.34;5059082;28;20190;-68
2023/05/21 11:04:03;;;;;;;5.17;3.83;;;;;;;24.37;47.88;99233.28;5061019;28;20237;-68
2023/05/21 11:06:30;;;;;;;3.93;3.47;;;;;;;24.21;46.91;99234.59;5070695;28;20197;-69
2023/05/21 11:08:57;;;;;;;5.80;3.70;;;;;;;24.17;47.35;99221.88;5061363;28;20195;-69
2023/05/21 11:11:47;;;;;;;5.93;4.10;;;;;;;23.70;47.98;99228.09;5056602;28;20190;-69
2023/05/21 11:14:31;;;;;;;4.70;4.23;;;;;;;23.51;49.79;99224.50;5051216;28;20596;-66
2023/05/21 11:16:58;;;;;;;4.67;4.03;;;;;;;23.59;49.33;99213.03;5051403;28;20193;-70
2023/05/21 11:19:35;;;;;;;7.13;4.03;;;;;;;23.50;50.65;99220.19;5051691;28;20289;-68
2023/05/21 11:22:07;;;;;;;7.53;3.87;;;;;;;23.46;50.79;99216.41;5051124;28;20185;-69
2023/05/21 11:24:38;;;;;;;6.40;3.97;;;;;;;23.27;50.36;99207.38;5051603;28;20186;-68
2023/05/21 11:27:05;;;;;;;5.80;4.37;;;;;;;23.17;50.14;99193.06;5051095;28;20271;-71
2023/05/21 11:29:39;;;;;;;5.47;4.30;;;;;;;23.15;51.51;99204.19;5051152;28;20245;-70
2023/05/21 11:32:08;;;;;;;8.77;4.40;;;;;;;23.16;51.61;99194.97;5050882;28;20660;-68
2023/05/21 11:34:40;;;;;;;6.63;4.40;;;;;;;23.39;50.71;99204.28;5058183;28;20649;-69
2023/05/21 11:37:26;;;;;;;5.10;4.37;;;;;;;23.61;51.11;99196.47;5071060;28;20625;-69